createdAt,value
2018-04-18T00:00:25.075Z,9.80
2018-04-18T00:02:57.595Z,9.00
2018-04-18T00:05:30.907Z,8.90
2018-04-18T00:08:03.523Z,8.37
2018-04-18T00:10:35.915Z,7.97
2018-04-18T00:13:08.559Z,7.47
2018-04-18T00:15:41.019Z,6.80
2018-04-18T00:18:14.358Z,7.40
2018-04-18T00:20:46.706Z,6.73
2018-04-18T00:23:19.181Z,6.60
2018-04-18T00:25:51.648Z,6.70
2018-04-18T00:28:25.155Z,6.50
2018-04-18T00:30:57.766Z,7.00
2018-04-18T00:33:30.888Z,7.50
2018-04-18T00:36:03.198Z,7.30
2018-04-18T00:38:35.562Z,6.80
2018-04-18T00:41:07.890Z,7.60
2018-04-18T00:43:40.445Z,7.57
2018-04-18T00:46:13.011Z,7.27
2018-04-18T00:48:45.659Z,6.87
2018-04-18T00:51:17.937Z,6.87
2018-04-18T00:53:50.405Z,7.03
2018-04-18T00:56:23.607Z,6.60
2018-04-18T00:58:56.164Z,7.23
2018-04-18T01:01:28.706Z,7.40
2018-04-18T01:04:01.347Z,7.97
2018-04-18T01:06:33.759Z,7.27
2018-04-18T01:09:06.339Z,6.90
2018-04-18T01:11:38.715Z,7.10
2018-04-18T01:14:11.164Z,6.63
2018-04-18T01:16:43.646Z,6.73
2018-04-18T01:19:16.066Z,6.67
2018-04-18T01:21:48.466Z,8.27
2018-04-18T01:24:21.008Z,8.93
2018-04-18T01:26:53.459Z,7.93
2018-04-18T01:29:25.794Z,8.27
2018-04-18T01:31:58.142Z,7.27
2018-04-18T01:34:31.479Z,8.23
2018-04-18T01:37:03.882Z,8.10
2018-04-18T01:39:38.269Z,7.00
2018-04-18T01:42:11.606Z,8.47
2018-04-18T01:44:44.027Z,7.00
2018-04-18T01:47:19.411Z,7.30
2018-04-18T01:49:52.190Z,7.57
2018-04-18T01:52:24.723Z,7.43
2018-04-18T01:54:57.154Z,7.30
2018-04-18T01:57:29.794Z,8.43
2018-04-18T02:00:02.294Z,7.63
2018-04-18T02:02:35.570Z,7.67
2018-04-18T02:05:08.136Z,8.37
2018-04-18T02:07:40.522Z,7.87
2018-04-18T02:10:12.958Z,7.43
2018-04-18T02:12:46.222Z,8.30
2018-04-18T02:15:19.731Z,7.40
2018-04-18T02:17:52.059Z,7.77
2018-04-18T02:20:24.507Z,7.70
2018-04-18T02:22:56.941Z,7.47
2018-04-18T02:25:29.459Z,7.50
2018-04-18T02:28:01.866Z,7.30
2018-04-18T02:30:34.701Z,7.60
2018-04-18T02:33:07.318Z,7.50
2018-04-18T02:35:40.292Z,7.70
2018-04-18T02:38:12.694Z,7.23
2018-04-18T02:40:45.020Z,6.73
2018-04-18T02:43:17.415Z,7.43
2018-04-18T02:45:49.999Z,7.23
2018-04-18T02:48:22.494Z,7.30
2018-04-18T02:50:55.647Z,8.07
2018-04-18T02:53:28.063Z,7.87
2018-04-18T02:56:00.571Z,7.43
2018-04-18T02:58:33.659Z,7.60
2018-04-18T03:01:06.235Z,7.80
2018-04-18T03:03:38.645Z,8.23
2018-04-18T03:06:11.466Z,7.47
2018-04-18T03:08:44.654Z,7.40
2018-04-18T03:11:17.876Z,7.20
2018-04-18T03:13:51.234Z,7.87
2018-04-18T03:16:23.984Z,8.27
2018-04-18T03:18:56.270Z,8.57
2018-04-18T03:21:29.374Z,7.20
2018-04-18T03:24:01.714Z,8.20
2018-04-18T03:26:34.779Z,8.23
2018-04-18T03:29:07.382Z,7.20
2018-04-18T03:31:39.895Z,7.70
2018-04-18T03:34:12.649Z,7.13
2018-04-18T03:36:45.277Z,7.50
2018-04-18T03:39:17.867Z,7.83
2018-04-18T03:41:50.447Z,6.77
2018-04-18T03:44:22.906Z,6.87
2018-04-18T03:46:55.559Z,7.33
2018-04-18T03:49:27.914Z,7.37
2018-04-18T03:52:00.362Z,7.40
2018-04-18T03:54:33.897Z,7.40
2018-04-18T03:57:06.309Z,6.93
2018-04-18T03:59:39.737Z,7.87
2018-04-18T04:02:12.410Z,6.80
2018-04-18T04:04:44.974Z,7.17
2018-04-18T04:07:18.269Z,7.27
2018-04-18T04:09:50.647Z,7.90
2018-04-18T04:12:23.331Z,7.20
2018-04-18T04:14:55.671Z,7.73
2018-04-18T04:17:40.513Z,7.57
2018-04-18T04:20:25.295Z,8.30
2018-04-18T04:23:10.312Z,8.10
2018-04-18T04:25:51.065Z,9.30
2018-04-18T04:28:23.453Z,8.17
2018-04-18T04:30:56.669Z,7.70
2018-04-18T04:33:29.162Z,8.27
2018-04-18T04:36:01.776Z,6.93
2018-04-18T04:38:34.114Z,7.87
2018-04-18T04:41:06.703Z,8.20
2018-04-18T04:43:39.231Z,8.13
2018-04-18T04:46:12.382Z,8.20
2018-04-18T04:48:45.908Z,8.07
2018-04-18T04:51:21.716Z,7.40
2018-04-18T04:53:56.178Z,7.67
2018-04-18T04:56:29.270Z,7.00
2018-04-18T04:59:06.204Z,7.47
2018-04-18T05:01:39.311Z,7.67
2018-04-18T05:04:11.870Z,7.43
2018-04-18T05:06:48.128Z,8.33
2018-04-18T05:09:20.653Z,7.40
2018-04-18T05:11:53.138Z,7.57
2018-04-18T05:14:25.494Z,7.80
2018-04-18T05:16:57.903Z,8.17
2018-04-18T05:19:31.021Z,8.67
2018-04-18T05:22:03.423Z,7.80
2018-04-18T05:24:35.954Z,8.20
2018-04-18T05:27:08.253Z,8.30
2018-04-18T05:29:40.833Z,8.10
2018-04-18T05:32:13.991Z,7.93
2018-04-18T05:34:47.135Z,8.07
2018-04-18T05:37:19.918Z,8.27
2018-04-18T05:39:52.506Z,8.90
2018-04-18T05:42:25.038Z,9.07
2018-04-18T05:44:57.446Z,7.73
2018-04-18T05:47:29.812Z,8.70
2018-04-18T05:50:02.259Z,9.80
2018-04-18T05:52:34.741Z,10.43
2018-04-18T05:55:07.889Z,10.67
2018-04-18T05:57:40.275Z,11.63
2018-04-18T06:00:13.428Z,12.17
2018-04-18T06:02:45.951Z,12.20
2018-04-18T06:05:18.490Z,12.73
2018-04-18T06:07:50.919Z,13.27
2018-04-18T06:10:23.282Z,12.73
2018-04-18T06:12:55.747Z,12.90
2018-04-18T06:15:31.986Z,13.90
2018-04-18T06:18:05.072Z,14.00
2018-04-18T06:20:38.226Z,13.90
2018-04-18T06:23:10.762Z,13.97
2018-04-18T06:25:44.378Z,14.87
2018-04-18T06:28:16.859Z,14.87
2018-04-18T06:30:49.378Z,13.90
2018-04-18T06:33:21.860Z,14.33
2018-04-18T06:35:54.515Z,14.20
2018-04-18T06:38:26.863Z,13.80
2018-04-18T06:41:00.303Z,14.70
2018-04-18T06:43:32.826Z,13.30
2018-04-18T06:46:05.355Z,14.50
2018-04-18T06:48:37.678Z,14.97
2018-04-18T06:51:11.365Z,13.77
2018-04-18T06:53:44.729Z,14.47
2018-04-18T06:56:17.105Z,13.17
2018-04-18T06:58:49.534Z,13.83
2018-04-18T07:01:22.067Z,15.33
2018-04-18T07:03:55.086Z,13.23
2018-04-18T07:06:27.738Z,13.00
2018-04-18T07:09:00.205Z,13.70
2018-04-18T07:11:32.850Z,13.23
2018-04-18T07:14:05.343Z,12.67
2018-04-18T07:16:37.669Z,13.33
2018-04-18T07:19:11.112Z,14.07
2018-04-18T07:21:43.567Z,12.63
2018-04-18T07:24:15.852Z,13.83
2018-04-18T07:26:49.051Z,13.60
2018-04-18T07:29:21.556Z,13.00
2018-04-18T07:31:54.559Z,12.97
2018-04-18T07:34:27.178Z,12.70
2018-04-18T07:36:59.750Z,12.10
2018-04-18T07:39:32.107Z,12.00
2018-04-18T07:42:04.876Z,11.97
2018-04-18T07:44:37.274Z,12.20
2018-04-18T07:47:09.877Z,11.80
2018-04-18T07:49:43.419Z,12.37
2018-04-18T07:52:15.771Z,12.50
2018-04-18T07:54:48.218Z,12.33
2018-04-18T07:57:21.005Z,11.50
2018-04-18T07:59:54.142Z,11.83
2018-04-18T08:02:26.534Z,12.13
2018-04-18T08:04:59.027Z,10.50
2018-04-18T08:07:33.468Z,10.20
2018-04-18T08:10:05.771Z,10.43
2018-04-18T08:12:38.515Z,10.37
2018-04-18T08:15:10.931Z,9.93
2018-04-18T08:17:44.452Z,10.30
2018-04-18T08:20:16.762Z,10.70
2018-04-18T08:22:49.501Z,10.43
2018-04-18T08:25:21.990Z,10.70
2018-04-18T08:27:55.515Z,10.50
2018-04-18T08:30:27.844Z,10.40
2018-04-18T08:33:00.268Z,10.20
2018-04-18T08:35:32.858Z,10.47
2018-04-18T08:38:05.986Z,10.10
2018-04-18T08:40:38.386Z,11.00
2018-04-18T08:43:10.918Z,10.00
2018-04-18T08:45:43.263Z,9.63
2018-04-18T08:48:16.475Z,10.80
2018-04-18T08:50:49.518Z,10.93
2018-04-18T08:53:22.201Z,11.00
2018-04-18T08:55:55.508Z,10.30
2018-04-18T08:58:28.670Z,10.00
2018-04-18T09:01:02.003Z,10.93
2018-04-18T09:03:34.369Z,10.47
2018-04-18T09:06:06.715Z,11.10
2018-04-18T09:08:39.215Z,11.80
2018-04-18T09:11:12.687Z,10.47
2018-04-18T09:13:45.247Z,10.40
2018-04-18T09:16:17.587Z,10.83
2018-04-18T09:18:49.976Z,9.90
2018-04-18T09:21:23.538Z,11.17
2018-04-18T09:23:56.126Z,11.10
2018-04-18T09:26:28.696Z,10.50
2018-04-18T09:29:01.318Z,11.20
2018-04-18T09:31:33.858Z,10.53
2018-04-18T09:34:06.230Z,10.67
2018-04-18T09:36:38.570Z,12.13
2018-04-18T09:39:11.223Z,11.70
2018-04-18T09:41:43.692Z,11.60
2018-04-18T09:44:17.027Z,10.63
2018-04-18T09:46:49.587Z,10.00
2018-04-18T09:49:22.167Z,10.37
2018-04-18T09:51:54.548Z,9.20
2018-04-18T09:54:26.987Z,8.33
2018-04-18T09:56:59.370Z,9.13
2018-04-18T09:59:32.014Z,8.93
2018-04-18T10:02:11.162Z,10.20
2018-04-18T10:04:43.598Z,9.63
2018-04-18T10:07:16.159Z,9.03
2018-04-18T10:09:49.306Z,8.00
2018-04-18T10:12:21.651Z,9.17
2018-04-18T10:14:54.028Z,8.37
2018-04-18T10:17:26.430Z,7.90
2018-04-18T10:19:59.222Z,7.50
2018-04-18T10:22:32.514Z,7.80
2018-04-18T10:25:05.116Z,8.53
2018-04-18T10:27:37.623Z,8.10
2018-04-18T10:30:10.113Z,7.63
2018-04-18T10:32:43.407Z,8.27
2018-04-18T10:35:15.838Z,8.23
2018-04-18T10:37:48.160Z,8.40
2018-04-18T10:40:20.674Z,7.93
2018-04-18T10:42:53.137Z,8.60
2018-04-18T10:45:27.076Z,8.40
2018-04-18T10:47:59.426Z,9.20
2018-04-18T10:50:31.950Z,9.07
2018-04-18T10:53:04.503Z,8.43
2018-04-18T10:55:37.158Z,9.57
2018-04-18T10:58:09.768Z,9.03
2018-04-18T11:00:42.237Z,8.67
2018-04-18T11:03:14.651Z,7.97
2018-04-18T11:05:47.280Z,7.27
2018-04-18T11:08:19.807Z,8.40
2018-04-18T11:10:52.986Z,7.90
2018-04-18T11:13:25.442Z,9.40
2018-04-18T11:15:58.214Z,9.10
2018-04-18T11:18:30.551Z,8.10
2018-04-18T11:21:11.090Z,6.97
2018-04-18T11:23:44.767Z,7.10
2018-04-18T11:26:17.383Z,7.20
2018-04-18T11:28:50.670Z,7.67
2018-04-18T11:31:23.195Z,6.90
2018-04-18T11:33:55.722Z,6.40
2018-04-18T11:36:28.182Z,4.53
2018-04-18T11:39:00.583Z,5.23
2018-04-18T11:41:34.415Z,4.70
2018-04-18T11:44:07.736Z,3.80
2018-04-18T11:46:42.218Z,4.00
2018-04-18T11:49:14.614Z,4.03
2018-04-18T11:51:47.291Z,3.47
2018-04-18T11:54:21.595Z,4.20
2018-04-18T11:56:59.973Z,4.50
2018-04-18T11:59:33.325Z,4.33
2018-04-18T12:02:05.802Z,3.73
2018-04-18T12:04:40.372Z,4.33
2018-04-18T12:07:12.899Z,4.30
2018-04-18T12:09:47.290Z,3.27
2018-04-18T12:12:20.426Z,3.40
2018-04-18T12:14:52.942Z,3.40
2018-04-18T12:17:25.479Z,3.53
2018-04-18T12:19:59.416Z,3.20
2018-04-18T12:22:31.764Z,3.30
2018-04-18T12:25:04.155Z,3.70
2018-04-18T12:27:36.620Z,3.20
2018-04-18T12:30:09.988Z,3.50
2018-04-18T12:32:42.816Z,4.00
2018-04-18T12:35:15.999Z,4.10
2018-04-18T12:37:49.237Z,4.60
2018-04-18T12:40:22.674Z,4.10
2018-04-18T12:42:56.816Z,4.10
2018-04-18T12:45:30.268Z,4.93
2018-04-18T12:48:02.788Z,4.50
2018-04-18T12:50:35.259Z,3.90
2018-04-18T12:53:07.950Z,4.30
2018-04-18T12:55:40.454Z,4.37
2018-04-18T12:58:12.994Z,4.70
2018-04-18T13:00:46.284Z,4.47
2018-04-18T13:03:20.998Z,5.27
2018-04-18T13:05:53.295Z,4.57
2018-04-18T13:08:26.719Z,5.43
2018-04-18T13:10:59.328Z,4.80
2018-04-18T13:13:32.138Z,5.37
2018-04-18T13:16:04.698Z,5.50
2018-04-18T13:18:37.230Z,5.10
2018-04-18T13:21:10.490Z,5.63
2018-04-18T13:23:44.185Z,6.00
2018-04-18T13:26:16.950Z,6.10
2018-04-18T13:28:50.159Z,6.50
2018-04-18T13:31:22.816Z,6.57
2018-04-18T13:33:55.286Z,8.33
2018-04-18T13:36:27.736Z,6.17
2018-04-18T13:39:01.024Z,5.03
2018-04-18T13:41:34.407Z,6.30
2018-04-18T13:44:06.910Z,5.20
2018-04-18T13:46:39.451Z,5.03
2018-04-18T13:49:12.618Z,5.07
2018-04-18T13:51:45.208Z,4.90
2018-04-18T13:54:18.518Z,5.00
2018-04-18T13:56:51.032Z,6.40
2018-04-18T13:59:24.224Z,5.23
2018-04-18T14:01:56.775Z,5.97
2018-04-18T14:04:29.651Z,5.30
2018-04-18T14:07:02.162Z,6.23
2018-04-18T14:09:34.811Z,5.27
2018-04-18T14:12:07.354Z,5.10
2018-04-18T14:14:39.999Z,4.53
2018-04-18T14:17:15.626Z,5.37
2018-04-18T14:19:48.010Z,4.60
2018-04-18T14:22:20.546Z,6.30
2018-04-18T14:24:53.699Z,4.00
2018-04-18T14:27:26.086Z,6.10
2018-04-18T14:29:59.307Z,5.20
2018-04-18T14:32:31.799Z,5.23
2018-04-18T14:35:04.354Z,6.00
2018-04-18T14:37:36.706Z,5.17
2018-04-18T14:40:09.156Z,5.90
2018-04-18T14:42:41.506Z,4.47
2018-04-18T14:45:14.162Z,5.30
2018-04-18T14:47:46.501Z,6.27
2018-04-18T14:50:19.171Z,5.30
2018-04-18T14:52:52.474Z,5.37
2018-04-18T14:55:25.589Z,5.20
2018-04-18T14:57:57.986Z,4.40
2018-04-18T15:00:31.327Z,5.93
2018-04-18T15:03:03.855Z,4.90
2018-04-18T15:05:36.666Z,5.23
2018-04-18T15:08:09.191Z,4.20
2018-04-18T15:10:41.589Z,4.50
2018-04-18T15:13:14.067Z,5.10
2018-04-18T15:15:46.472Z,4.40
2018-04-18T15:18:18.900Z,5.33
2018-04-18T15:20:51.343Z,4.50
2018-04-18T15:23:24.367Z,4.13
2018-04-18T15:25:57.798Z,4.60
2018-04-18T15:28:30.198Z,4.53
2018-04-18T15:31:02.778Z,4.40
2018-04-18T15:33:35.355Z,4.80
2018-04-18T15:36:07.988Z,3.93
2018-04-18T15:38:40.483Z,4.33
2018-04-18T15:41:12.997Z,4.13
2018-04-18T15:43:45.431Z,4.27
2018-04-18T15:46:18.744Z,4.30
2018-04-18T15:48:51.106Z,5.50
2018-04-18T15:51:24.422Z,5.80
2018-04-18T15:53:57.023Z,4.90
2018-04-18T15:56:30.443Z,5.00
2018-04-18T15:59:03.863Z,5.10
2018-04-18T16:01:36.334Z,4.57
2018-04-18T16:04:08.898Z,4.40
2018-04-18T16:06:41.474Z,4.50
2018-04-18T16:09:13.963Z,5.37
2018-04-18T16:11:46.469Z,4.53
2018-04-18T16:14:18.802Z,4.30
2018-04-18T16:16:51.962Z,4.50
2018-04-18T16:19:24.314Z,5.37
2018-04-18T16:21:56.896Z,5.33
2018-04-18T16:24:30.029Z,4.80
2018-04-18T16:27:02.436Z,4.97
2018-04-18T16:29:42.119Z,5.43
2018-04-18T16:32:14.686Z,5.27
2018-04-18T16:34:47.227Z,4.87
2018-04-18T16:37:19.722Z,4.33
2018-04-18T16:39:52.947Z,4.97
2018-04-18T16:42:26.462Z,4.03
2018-04-18T16:45:00.706Z,4.27
2018-04-18T16:47:33.275Z,4.60
2018-04-18T16:50:05.707Z,4.00
2018-04-18T16:52:38.159Z,3.83
2018-04-18T16:55:10.493Z,4.03
2018-04-18T16:57:43.238Z,4.13
2018-04-18T17:00:16.701Z,3.80
2018-04-18T17:02:49.355Z,4.17
2018-04-18T17:05:22.990Z,3.67
2018-04-18T17:07:56.547Z,3.77
2018-04-18T17:10:28.863Z,4.40
2018-04-18T17:13:01.415Z,4.60
2018-04-18T17:15:33.978Z,4.70
2018-04-18T17:18:07.179Z,4.07
2018-04-18T17:20:41.663Z,3.80
2018-04-18T17:23:14.237Z,3.63
2018-04-18T17:25:46.823Z,4.03
2018-04-18T17:28:20.602Z,3.90
2018-04-18T17:30:53.763Z,3.90
2018-04-18T17:33:26.260Z,4.03
2018-04-18T17:35:58.814Z,3.77
2018-04-18T17:38:32.320Z,3.40
2018-04-18T17:41:04.714Z,4.30
2018-04-18T17:43:37.218Z,4.10
2018-04-18T17:46:10.238Z,4.30
2018-04-18T17:48:42.760Z,4.27
2018-04-18T17:51:15.274Z,4.40
2018-04-18T17:53:47.904Z,4.43
2018-04-18T17:56:21.065Z,3.80
2018-04-18T17:58:53.831Z,3.67
2018-04-18T18:01:26.250Z,3.70
2018-04-18T18:03:59.438Z,4.27
2018-04-18T18:06:32.490Z,3.50
2018-04-18T18:09:05.034Z,4.33
2018-04-18T18:11:37.542Z,3.47
2018-04-18T18:14:10.016Z,4.10
2018-04-18T18:16:42.559Z,4.00
2018-04-18T18:19:14.929Z,3.70
2018-04-18T18:21:47.323Z,3.93
2018-04-18T18:24:19.999Z,5.50
2018-04-18T18:26:52.390Z,5.03
2018-04-18T18:29:26.832Z,4.87
2018-04-18T18:31:59.411Z,4.27
2018-04-18T18:34:31.993Z,3.83
2018-04-18T18:37:04.459Z,3.63
2018-04-18T18:39:36.998Z,3.60
2018-04-18T18:42:09.665Z,3.70
2018-04-18T18:44:43.069Z,3.43
2018-04-18T18:47:15.398Z,3.80
2018-04-18T18:49:47.917Z,3.50
2018-04-18T18:52:20.365Z,3.73
2018-04-18T18:54:53.643Z,3.53
2018-04-18T18:57:25.995Z,3.87
2018-04-18T18:59:58.586Z,3.90
2018-04-18T19:02:34.377Z,4.00
2018-04-18T19:05:06.886Z,3.13
2018-04-18T19:07:39.231Z,3.60
2018-04-18T19:10:12.479Z,3.70
2018-04-18T19:12:44.954Z,3.80
2018-04-18T19:15:17.346Z,4.13
2018-04-18T19:17:49.844Z,3.50
2018-04-18T19:20:22.457Z,3.37
2018-04-18T19:22:54.879Z,3.60
2018-04-18T19:25:27.336Z,3.67
2018-04-18T19:27:59.921Z,4.13
2018-04-18T19:30:32.369Z,4.23
2018-04-18T19:33:04.687Z,3.87
2018-04-18T19:35:37.902Z,3.30
2018-04-18T19:38:14.950Z,3.50
2018-04-18T19:40:47.522Z,4.10
2018-04-18T19:43:19.854Z,3.87
2018-04-18T19:45:52.474Z,4.37
2018-04-18T19:48:24.999Z,4.03
2018-04-18T19:50:57.650Z,4.20
2018-04-18T19:53:30.215Z,4.30
2018-04-18T19:56:02.852Z,4.70
2018-04-18T19:58:35.339Z,4.33
2018-04-18T20:01:07.768Z,4.47
2018-04-18T20:03:40.943Z,5.27
2018-04-18T20:06:13.680Z,4.70
2018-04-18T20:08:46.127Z,5.47
2018-04-18T20:11:18.678Z,5.33
2018-04-18T20:13:51.027Z,5.63
2018-04-18T20:16:23.501Z,5.60
2018-04-18T20:18:56.734Z,4.80
2018-04-18T20:21:29.139Z,5.00
2018-04-18T20:24:01.678Z,5.30
2018-04-18T20:26:34.319Z,6.13
2018-04-18T20:29:06.710Z,5.60
2018-04-18T20:31:39.125Z,6.40
2018-04-18T20:34:11.410Z,5.97
2018-04-18T20:36:49.671Z,6.10
2018-04-18T20:39:22.275Z,5.90
2018-04-18T20:41:55.621Z,6.40
2018-04-18T20:44:28.887Z,5.87
2018-04-18T20:47:01.284Z,6.43
2018-04-18T20:49:35.136Z,6.50
2018-04-18T20:52:07.714Z,6.43
2018-04-18T20:54:44.232Z,7.50
2018-04-18T20:57:16.982Z,7.00
2018-04-18T20:59:49.462Z,6.80
2018-04-18T21:02:21.964Z,7.17
2018-04-18T21:04:54.426Z,6.00
2018-04-18T21:07:28.555Z,6.60
2018-04-18T21:10:01.021Z,7.23
2018-04-18T21:12:33.965Z,7.00
2018-04-18T21:15:07.139Z,7.30
2018-04-18T21:17:41.173Z,7.73
2018-04-18T21:20:13.842Z,7.10
2018-04-18T21:22:46.534Z,6.90
2018-04-18T21:25:19.191Z,6.80
2018-04-18T21:27:51.731Z,6.63
2018-04-18T21:30:24.944Z,7.80
2018-04-18T21:32:57.471Z,7.77
2018-04-18T21:35:29.975Z,7.03
2018-04-18T21:38:02.764Z,7.30
2018-04-18T21:40:35.966Z,7.97
2018-04-18T21:43:09.190Z,7.30
2018-04-18T21:45:42.554Z,6.80
2018-04-18T21:48:15.353Z,6.30
2018-04-18T21:50:47.654Z,7.03
2018-04-18T21:53:20.165Z,6.63
2018-04-18T21:55:52.548Z,6.03
2018-04-18T21:58:24.971Z,6.73
2018-04-18T22:00:57.362Z,5.90
2018-04-18T22:03:29.941Z,6.23
2018-04-18T22:06:02.434Z,5.67
2018-04-18T22:08:35.018Z,5.97
2018-04-18T22:11:07.845Z,6.60
2018-04-18T22:13:40.939Z,5.70
2018-04-18T22:16:13.290Z,6.43
2018-04-18T22:18:46.348Z,6.53
2018-04-18T22:21:21.103Z,6.30
2018-04-18T22:23:54.303Z,6.60
2018-04-18T22:26:26.746Z,6.10
2018-04-18T22:28:59.352Z,6.30
2018-04-18T22:31:32.806Z,6.17
2018-04-18T22:34:06.082Z,6.40
2018-04-18T22:36:39.651Z,6.13
2018-04-18T22:39:12.189Z,6.43
2018-04-18T22:41:45.370Z,6.60
2018-04-18T22:44:18.694Z,6.87
2018-04-18T22:46:51.791Z,6.90
2018-04-18T22:49:24.227Z,6.90
2018-04-18T22:51:56.551Z,7.93
2018-04-18T22:54:29.582Z,7.20
2018-04-18T22:57:02.075Z,7.93
2018-04-18T22:59:36.269Z,8.10
2018-04-18T23:02:08.610Z,7.43
2018-04-18T23:04:41.130Z,8.20
2018-04-18T23:07:13.660Z,7.50
2018-04-18T23:09:47.269Z,7.70
2018-04-18T23:12:19.850Z,7.77
2018-04-18T23:14:52.730Z,7.47
2018-04-18T23:17:25.827Z,6.40
2018-04-18T23:19:59.379Z,7.00
2018-04-18T23:22:32.989Z,8.43
2018-04-18T23:25:05.452Z,6.47
2018-04-18T23:27:37.930Z,6.43
2018-04-18T23:30:11.263Z,7.90
2018-04-18T23:32:43.780Z,8.00
2018-04-18T23:35:16.395Z,6.43
2018-04-18T23:37:49.522Z,7.60
2018-04-18T23:40:22.046Z,7.00
2018-04-18T23:42:54.415Z,6.17
2018-04-18T23:45:30.654Z,7.23
2018-04-18T23:48:03.693Z,7.67
2018-04-18T23:50:37.362Z,7.27
2018-04-18T23:53:09.698Z,7.50
2018-04-18T23:55:42.414Z,7.67
2018-04-18T23:58:15.106Z,8.33
